createdAt,value
2023-02-14T00:00:22.949Z,-0.55
2023-02-14T00:02:53.909Z,-0.58
2023-02-14T00:05:23.556Z,-0.59
2023-02-14T00:07:53.140Z,-0.62
2023-02-14T00:10:22.755Z,-0.62
2023-02-14T00:12:52.251Z,-0.64
2023-02-14T00:15:23.890Z,-0.64
2023-02-14T00:17:59.544Z,-0.63
2023-02-14T00:20:29.642Z,-0.59
2023-02-14T00:23:00.819Z,-0.58
2023-02-14T00:25:30.323Z,-0.59
2023-02-14T00:27:59.848Z,-0.58
2023-02-14T00:30:31.233Z,-0.53
2023-02-14T00:33:02.110Z,-0.50
2023-02-14T00:35:31.497Z,-0.49
2023-02-14T00:38:19.456Z,-0.50
2023-02-14T00:40:48.957Z,-0.49
2023-02-14T00:43:18.390Z,-0.52
2023-02-14T00:45:47.946Z,-0.53
2023-02-14T00:48:18.871Z,-0.53
2023-02-14T00:50:48.641Z,-0.53
2023-02-14T00:53:18.352Z,-0.50
2023-02-14T00:55:48.017Z,-0.50
2023-02-14T00:58:17.843Z,-0.51
2023-02-14T01:00:47.303Z,-0.54
2023-02-14T01:03:18.338Z,-0.54
2023-02-14T01:05:49.413Z,-0.54
2023-02-14T01:08:20.375Z,-0.52
2023-02-14T01:10:49.977Z,-0.52
2023-02-14T01:13:20.644Z,-0.50
2023-02-14T01:18:42.231Z,-0.51
2023-02-14T01:32:32.552Z,-0.44
2023-02-14T01:35:03.601Z,-0.58
2023-02-14T01:37:33.041Z,-0.65
2023-02-14T01:40:03.160Z,-0.71
2023-02-14T01:42:35.634Z,-0.74
2023-02-14T01:45:10.937Z,-0.74
2023-02-14T01:47:44.728Z,-0.78
2023-02-14T01:50:22.574Z,-0.82
2023-02-14T01:52:57.557Z,-0.86
2023-02-14T01:55:31.818Z,-0.86
2023-02-14T01:58:06.345Z,-0.85
2023-02-14T02:00:54.385Z,-0.81
2023-02-14T02:03:25.740Z,-0.75
2023-02-14T02:06:04.048Z,-0.76
2023-02-14T02:08:38.872Z,-0.82
2023-02-14T02:11:08.494Z,-0.83
2023-02-14T02:13:37.867Z,-0.86
2023-02-14T02:16:53.633Z,-0.83
2023-02-14T02:20:42.706Z,-0.83
2023-02-14T02:24:15.536Z,-0.82
2023-02-14T02:27:45.930Z,-0.88
2023-02-14T02:31:04.149Z,-0.89
2023-02-14T02:34:33.058Z,-0.87
2023-02-14T02:37:36.564Z,-0.93
2023-02-14T02:40:27.420Z,-0.96
2023-02-14T02:43:12.647Z,-0.97
2023-02-14T02:46:17.840Z,-1.03
2023-02-14T02:49:01.110Z,-1.03
2023-02-14T02:51:58.341Z,-1.06
2023-02-14T02:54:37.743Z,-1.08
2023-02-14T02:57:16.844Z,-1.08
2023-02-14T02:59:48.158Z,-1.09
2023-02-14T03:02:24.104Z,-1.08
2023-02-14T03:04:58.868Z,-1.09
2023-02-14T03:07:36.351Z,-1.07
2023-02-14T03:10:20.848Z,-1.11
2023-02-14T03:13:42.816Z,-1.16
2023-02-14T03:16:33.769Z,-1.20
2023-02-14T03:19:56.338Z,-1.22
2023-02-14T03:22:50.705Z,-1.26
2023-02-14T03:25:44.587Z,-1.30
2023-02-14T03:28:22.001Z,-1.33
2023-02-14T03:31:04.582Z,-1.33
2023-02-14T03:33:47.178Z,-1.33
2023-02-14T03:36:22.013Z,-1.34
2023-02-14T03:39:02.134Z,-1.34
2023-02-14T03:41:39.442Z,-1.36
2023-02-14T03:44:12.095Z,-1.38
2023-02-14T03:46:47.938Z,-1.43
2023-02-14T03:49:23.257Z,-1.47
2023-02-14T03:51:56.888Z,-1.49
2023-02-14T03:54:28.529Z,-1.52
2023-02-14T03:57:09.599Z,-1.53
2023-02-14T03:59:39.099Z,-1.55
2023-02-14T04:02:14.264Z,-1.52
2023-02-14T04:04:47.805Z,-1.48
2023-02-14T04:07:20.741Z,-1.45
2023-02-14T04:09:51.592Z,-1.43
2023-02-14T04:12:36.886Z,-1.43
2023-02-14T04:15:09.230Z,-1.46
2023-02-14T04:17:56.230Z,-1.54
2023-02-14T04:20:26.219Z,-1.55
2023-02-14T04:22:56.191Z,-1.59
2023-02-14T04:25:25.721Z,-1.55
2023-02-14T04:27:56.526Z,-1.53
2023-02-14T04:30:26.040Z,-1.55
2023-02-14T04:32:55.537Z,-1.57
2023-02-14T04:35:25.019Z,-1.59
2023-02-14T04:37:54.627Z,-1.60
2023-02-14T04:40:24.072Z,-1.62
2023-02-14T04:42:54.968Z,-1.65
2023-02-14T04:45:24.592Z,-1.65
2023-02-14T04:47:54.051Z,-1.66
2023-02-14T04:50:25.857Z,-1.62
2023-02-14T04:52:55.388Z,-1.64
2023-02-14T04:55:24.864Z,-1.67
2023-02-14T04:57:55.672Z,-1.75
2023-02-14T05:00:25.318Z,-1.79
2023-02-14T05:02:54.821Z,-1.83
2023-02-14T05:05:24.255Z,-1.91
2023-02-14T05:07:53.712Z,-1.98
2023-02-14T05:10:23.171Z,-1.97
2023-02-14T05:12:52.612Z,-2.12
2023-02-14T05:15:23.400Z,-2.06
2023-02-14T05:17:52.847Z,-2.20
2023-02-14T05:20:22.397Z,-2.16
2023-02-14T05:22:51.802Z,-2.23
2023-02-14T05:25:21.230Z,-2.27
2023-02-14T05:27:51.643Z,-2.33
2023-02-14T05:30:26.533Z,-2.38
2023-02-14T05:32:56.226Z,-2.40
2023-02-14T05:35:25.888Z,-2.39
2023-02-14T05:37:55.433Z,-2.39
2023-02-14T05:42:53.642Z,-2.41
2023-02-14T05:45:24.986Z,-2.35
2023-02-14T05:47:54.417Z,-2.31
2023-02-14T05:50:23.980Z,-2.31
2023-02-14T05:52:56.847Z,-2.28
2023-02-14T05:55:26.302Z,-2.33
2023-02-14T05:57:55.964Z,-2.34
2023-02-14T06:00:28.004Z,-2.33
2023-02-14T06:02:57.411Z,-2.36
2023-02-14T06:05:27.185Z,-2.35
2023-02-14T06:07:56.738Z,-2.34
2023-02-14T06:10:27.476Z,-2.31
2023-02-14T06:12:56.889Z,-2.28
2023-02-14T06:15:28.043Z,-2.32
2023-02-14T06:17:58.873Z,-2.29
2023-02-14T06:20:28.612Z,-2.35
2023-02-14T06:22:58.775Z,-2.36
2023-02-14T06:25:28.626Z,-2.39
2023-02-14T06:27:59.238Z,-2.42
2023-02-14T06:30:30.249Z,-2.51
2023-02-14T06:32:59.901Z,-2.51
2023-02-14T06:35:29.608Z,-2.46
2023-02-14T06:37:59.009Z,-2.47
2023-02-14T06:40:28.544Z,-2.46
2023-02-14T06:42:57.920Z,-2.49
2023-02-14T06:45:28.756Z,-2.47
2023-02-14T06:47:59.963Z,-2.45
2023-02-14T06:50:29.367Z,-2.46
2023-02-14T06:52:58.766Z,-2.49
2023-02-14T06:55:28.294Z,-2.49
2023-02-14T06:57:57.780Z,-2.45
2023-02-14T07:00:56.057Z,-2.40
2023-02-14T07:03:25.633Z,-2.34
2023-02-14T07:05:55.697Z,-2.31
2023-02-14T07:08:26.330Z,-2.26
2023-02-14T07:10:58.656Z,-2.22
2023-02-14T07:13:28.428Z,-2.22
2023-02-14T07:15:59.318Z,-2.18
2023-02-14T07:18:28.830Z,-2.16
2023-02-14T07:20:58.885Z,-2.11
2023-02-14T07:23:28.591Z,-2.05
2023-02-14T07:25:58.069Z,-2.02
2023-02-14T07:28:27.560Z,-2.03
2023-02-14T07:31:01.328Z,-2.06
2023-02-14T07:33:31.070Z,-2.05
2023-02-14T07:36:05.461Z,-2.07
2023-02-14T07:38:35.245Z,-2.11
2023-02-14T07:41:05.560Z,-2.12
2023-02-14T07:43:35.107Z,-2.09
2023-02-14T07:46:06.456Z,-2.11
2023-02-14T07:48:35.994Z,-2.13
2023-02-14T07:51:05.632Z,-2.21
2023-02-14T07:53:35.089Z,-2.24
2023-02-14T07:56:04.587Z,-2.22
2023-02-14T07:58:34.101Z,-2.29
2023-02-14T08:01:04.979Z,-2.33
2023-02-14T08:03:34.493Z,-2.28
2023-02-14T08:06:04.044Z,-2.21
2023-02-14T08:08:33.921Z,-2.14
2023-02-14T08:11:03.583Z,-2.08
2023-02-14T08:13:32.116Z,-2.09
2023-02-14T08:16:09.443Z,-2.13
2023-02-14T08:18:42.678Z,-2.14
2023-02-14T08:21:12.912Z,-2.11
2023-02-14T08:23:42.363Z,-2.01
2023-02-14T08:26:11.774Z,-1.92
2023-02-14T08:28:41.305Z,-1.83
2023-02-14T08:31:11.981Z,-1.81
2023-02-14T08:33:44.152Z,-1.89
2023-02-14T08:36:13.691Z,-1.90
2023-02-14T08:38:45.051Z,-1.96
2023-02-14T08:41:14.619Z,-2.06
2023-02-14T08:43:45.384Z,-2.08
2023-02-14T08:46:15.089Z,-2.07
2023-02-14T08:48:46.092Z,-2.09
2023-02-14T08:51:17.030Z,-2.05
2023-02-14T08:53:46.646Z,-1.97
2023-02-14T08:56:16.756Z,-1.95
2023-02-14T08:58:46.216Z,-1.98
2023-02-14T09:01:19.003Z,-1.94
2023-02-14T09:03:51.077Z,-1.86
2023-02-14T09:06:20.774Z,-1.82
2023-02-14T09:08:50.879Z,-1.80
2023-02-14T09:11:24.396Z,-1.73
2023-02-14T09:13:55.038Z,-1.71
2023-02-14T09:16:27.196Z,-1.63
2023-02-14T09:18:58.083Z,-1.53
2023-02-14T09:21:29.794Z,-1.44
2023-02-14T09:23:59.744Z,-1.32
2023-02-14T09:26:29.715Z,-1.26
2023-02-14T09:28:59.538Z,-1.20
2023-02-14T09:31:29.058Z,-1.15
2023-02-14T09:34:17.829Z,-1.26
2023-02-14T09:36:47.336Z,-1.21
2023-02-14T09:39:16.952Z,-1.25
2023-02-14T09:42:24.215Z,-1.21
2023-02-14T09:44:59.130Z,-1.12
2023-02-14T09:47:37.992Z,-1.04
2023-02-14T09:50:21.195Z,-0.97
2023-02-14T09:52:57.479Z,-0.88
2023-02-14T09:55:41.000Z,-0.94
2023-02-14T09:58:19.131Z,-0.88
2023-02-14T10:00:57.462Z,-0.85
2023-02-14T10:03:58.659Z,-0.85
2023-02-14T10:06:51.925Z,-0.86
2023-02-14T10:09:54.736Z,-0.84
2023-02-14T10:12:35.376Z,-0.73
2023-02-14T10:15:18.240Z,-0.71
2023-02-14T10:17:53.841Z,-0.79
2023-02-14T10:20:30.319Z,-0.79
2023-02-14T10:23:07.982Z,-0.73
2023-02-14T10:25:45.717Z,-0.60
2023-02-14T10:28:18.893Z,-0.57
2023-02-14T10:31:06.982Z,-0.48
2023-02-14T10:33:39.350Z,-0.40
2023-02-14T10:36:22.504Z,-0.31
2023-02-14T10:39:04.780Z,-0.26
2023-02-14T10:41:49.094Z,-0.14
2023-02-14T10:44:41.604Z,0.02
2023-02-14T10:47:32.151Z,0.10
2023-02-14T10:50:17.367Z,0.14
2023-02-14T10:52:59.265Z,0.15
2023-02-14T10:55:45.429Z,0.29
2023-02-14T10:58:20.663Z,0.43
2023-02-14T11:01:02.057Z,0.60
2023-02-14T11:03:32.922Z,0.69
2023-02-14T11:06:02.842Z,0.75
2023-02-14T11:08:36.538Z,0.83
2023-02-14T11:11:19.532Z,0.90
2023-02-14T11:13:49.963Z,0.98
2023-02-14T11:16:35.023Z,1.02
2023-02-14T11:19:22.439Z,1.14
2023-02-14T11:21:54.879Z,1.31
2023-02-14T11:24:32.585Z,1.38
2023-02-14T11:27:08.319Z,1.46
2023-02-14T11:29:47.944Z,1.51
2023-02-14T11:32:24.175Z,1.57
2023-02-14T11:35:00.413Z,1.68
2023-02-14T11:37:36.848Z,1.70
2023-02-14T11:40:11.096Z,1.79
2023-02-14T11:42:51.638Z,1.87
2023-02-14T11:45:36.126Z,1.98
2023-02-14T11:48:31.409Z,2.07
2023-02-14T11:51:10.076Z,2.16
2023-02-14T11:53:48.533Z,2.25
2023-02-14T11:56:20.525Z,2.31
2023-02-14T11:58:57.624Z,2.37
2023-02-14T12:01:33.038Z,2.45
2023-02-14T12:04:08.756Z,2.51
2023-02-14T12:06:38.370Z,2.54
2023-02-14T12:09:27.966Z,2.63
2023-02-14T12:11:59.680Z,2.53
2023-02-14T12:14:35.276Z,2.55
2023-02-14T12:17:14.337Z,2.64
2023-02-14T12:19:52.455Z,2.69
2023-02-14T12:22:28.514Z,2.64
2023-02-14T12:25:11.386Z,2.52
2023-02-14T12:27:51.480Z,2.45
2023-02-14T12:30:26.210Z,2.49
2023-02-14T12:32:57.858Z,2.51
2023-02-14T12:35:44.605Z,2.46
2023-02-14T12:38:29.192Z,2.47
2023-02-14T12:41:22.138Z,2.47
2023-02-14T12:43:54.757Z,2.47
2023-02-14T12:47:11.970Z,2.58
2023-02-14T12:50:31.635Z,2.66
2023-02-14T12:53:55.258Z,2.74
2023-02-14T12:56:43.513Z,2.78
2023-02-14T12:59:33.603Z,2.85
2023-02-14T13:03:03.109Z,3.07
2023-02-14T13:05:51.153Z,3.35
2023-02-14T13:08:40.573Z,3.54
2023-02-14T13:11:23.511Z,3.71
2023-02-14T13:14:04.718Z,3.85
2023-02-14T13:16:44.283Z,3.99
2023-02-14T13:19:33.279Z,4.05
2023-02-14T13:22:05.533Z,4.18
2023-02-14T13:24:42.297Z,4.25
2023-02-14T13:27:22.247Z,4.35
2023-02-14T13:29:55.934Z,4.41
2023-02-14T13:32:33.415Z,4.62
2023-02-14T13:35:06.474Z,4.91
2023-02-14T13:37:38.009Z,5.19
2023-02-14T13:40:19.130Z,5.41
2023-02-14T13:42:56.457Z,5.73
2023-02-14T13:46:06.691Z,5.84
2023-02-14T13:48:38.905Z,6.06
2023-02-14T13:51:12.051Z,6.15
2023-02-14T13:53:44.121Z,6.37
2023-02-14T13:56:35.806Z,6.96
2023-02-14T13:59:07.641Z,7.51
2023-02-14T14:01:42.146Z,7.86
2023-02-14T14:04:38.520Z,8.12
2023-02-14T14:07:29.999Z,8.43
2023-02-14T14:10:11.780Z,8.76
2023-02-14T14:12:45.608Z,9.07
2023-02-14T14:15:21.608Z,9.38
2023-02-14T14:18:38.778Z,9.43
2023-02-14T14:21:22.337Z,9.60
2023-02-14T14:24:20.823Z,9.63
2023-02-14T14:26:58.516Z,9.82
2023-02-14T14:29:37.964Z,10.03
2023-02-14T14:32:12.465Z,10.15
2023-02-14T14:34:51.462Z,10.15
2023-02-14T14:37:24.672Z,10.24
2023-02-14T14:39:58.202Z,10.20
2023-02-14T14:42:35.132Z,10.36
2023-02-14T14:45:10.536Z,10.60
2023-02-14T14:47:45.175Z,10.51
2023-02-14T14:50:19.648Z,10.60
2023-02-14T14:52:53.358Z,10.69
2023-02-14T14:55:28.923Z,10.71
2023-02-14T14:58:03.810Z,10.79
2023-02-14T15:00:36.088Z,10.85
2023-02-14T15:03:15.102Z,10.80
2023-02-14T15:05:48.315Z,10.88
2023-02-14T15:08:22.541Z,10.92
2023-02-14T15:10:59.748Z,11.01
2023-02-14T15:13:49.554Z,11.02
2023-02-14T15:16:27.060Z,11.04
2023-02-14T15:19:01.297Z,10.92
2023-02-14T15:21:32.612Z,10.84
2023-02-14T15:24:03.958Z,10.71
2023-02-14T15:26:37.368Z,10.76
2023-02-14T15:29:08.522Z,10.60
2023-02-14T15:31:42.104Z,10.32
2023-02-14T15:34:13.577Z,9.78
2023-02-14T15:36:46.605Z,8.96
2023-02-14T15:39:18.277Z,8.02
2023-02-14T15:41:49.180Z,7.51
2023-02-14T15:44:24.012Z,6.98
2023-02-14T15:46:58.564Z,6.50
2023-02-14T15:49:37.496Z,6.10
2023-02-14T15:52:08.140Z,5.62
2023-02-14T15:54:42.793Z,5.21
2023-02-14T15:57:25.013Z,4.88
2023-02-14T15:59:55.067Z,4.56
2023-02-14T16:02:35.906Z,4.23
2023-02-14T16:05:16.702Z,3.87
2023-02-14T16:08:03.468Z,3.53
2023-02-14T16:10:35.479Z,3.38
2023-02-14T16:13:18.252Z,3.26
2023-02-14T16:16:01.074Z,3.05
2023-02-14T16:18:38.596Z,2.94
2023-02-14T16:21:17.542Z,2.73
2023-02-14T16:23:48.536Z,2.65
2023-02-14T16:26:17.954Z,2.58
2023-02-14T16:28:48.824Z,2.49
2023-02-14T16:31:18.724Z,2.40
2023-02-14T16:33:48.331Z,2.26
2023-02-14T16:36:24.523Z,2.14
2023-02-14T16:38:55.173Z,1.97
2023-02-14T16:41:28.321Z,1.89
2023-02-14T16:43:59.484Z,1.79
2023-02-14T16:46:33.682Z,1.69
2023-02-14T16:49:03.360Z,1.58
2023-02-14T16:51:37.125Z,1.50
2023-02-14T16:54:12.544Z,1.49
2023-02-14T16:56:49.379Z,1.44
2023-02-14T16:59:20.372Z,1.38
2023-02-14T17:01:50.013Z,1.31
2023-02-14T17:04:19.501Z,1.22
2023-02-14T17:06:54.087Z,1.16
2023-02-14T17:09:32.832Z,1.09
2023-02-14T17:12:11.492Z,1.02
2023-02-14T17:14:46.851Z,0.96
2023-02-14T17:17:16.766Z,0.92
2023-02-14T17:19:46.311Z,0.89
2023-02-14T17:22:16.436Z,0.81
2023-02-14T17:24:45.914Z,0.75
2023-02-14T17:27:15.436Z,0.76
2023-02-14T17:29:46.270Z,0.76
2023-02-14T17:32:16.144Z,0.75
2023-02-14T17:34:45.683Z,0.67
2023-02-14T17:37:15.286Z,0.61
2023-02-14T17:39:44.948Z,0.56
2023-02-14T17:42:14.504Z,0.50
2023-02-14T17:44:45.253Z,0.44
2023-02-14T17:47:16.153Z,0.41
2023-02-14T17:49:47.130Z,0.39
2023-02-14T17:52:17.464Z,0.37
2023-02-14T17:54:46.920Z,0.34
2023-02-14T17:57:16.429Z,0.38
2023-02-14T17:59:47.353Z,0.37
2023-02-14T18:02:16.883Z,0.38
2023-02-14T18:04:48.350Z,0.36
2023-02-14T18:07:17.854Z,0.33
2023-02-14T18:09:47.351Z,0.32
2023-02-14T18:12:17.255Z,0.28
2023-02-14T18:14:48.106Z,0.27
2023-02-14T18:17:17.596Z,0.28
2023-02-14T18:19:49.848Z,0.22
2023-02-14T18:22:19.503Z,0.17
2023-02-14T18:24:49.192Z,0.13
2023-02-14T18:27:18.660Z,0.10
2023-02-14T18:29:49.817Z,0.07
2023-02-14T18:32:19.446Z,-0.04
2023-02-14T18:34:48.977Z,-0.12
2023-02-14T18:37:18.623Z,-0.18
2023-02-14T18:39:48.018Z,-0.20
2023-02-14T18:42:17.450Z,-0.23
2023-02-14T18:44:47.098Z,-0.24
2023-02-14T18:47:18.217Z,-0.27
2023-02-14T18:49:47.941Z,-0.27
2023-02-14T18:52:17.382Z,-0.31
2023-02-14T18:54:46.811Z,-0.35
2023-02-14T18:57:16.328Z,-0.33
2023-02-14T18:59:46.164Z,-0.34
2023-02-14T19:02:17.046Z,-0.37
2023-02-14T19:04:46.769Z,-0.42
2023-02-14T19:07:16.268Z,-0.41
2023-02-14T19:09:46.093Z,-0.43
2023-02-14T19:12:15.547Z,-0.49
2023-02-14T19:14:45.051Z,-0.45
2023-02-14T19:17:14.611Z,-0.47
2023-02-14T19:19:45.741Z,-0.48
2023-02-14T19:22:15.181Z,-0.46
2023-02-14T19:24:46.094Z,-0.45
2023-02-14T19:27:15.597Z,-0.50
2023-02-14T19:29:45.351Z,-0.54
2023-02-14T19:32:14.842Z,-0.57
2023-02-14T19:34:45.690Z,-0.62
2023-02-14T19:37:15.093Z,-0.65
2023-02-14T19:39:44.531Z,-0.66
2023-02-14T19:42:13.984Z,-0.66
2023-02-14T19:44:43.384Z,-0.65
2023-02-14T19:47:28.744Z,-0.66
2023-02-14T19:50:02.034Z,-0.63
2023-02-14T19:52:31.544Z,-0.66
2023-02-14T19:55:02.669Z,-0.65
2023-02-14T19:57:32.147Z,-0.68
2023-02-14T20:00:01.968Z,-0.69
2023-02-14T20:02:46.187Z,-0.69
2023-02-14T20:05:19.320Z,-0.70
2023-02-14T20:07:51.851Z,-0.69
2023-02-14T20:10:21.869Z,-0.70
2023-02-14T20:12:51.271Z,-0.69
2023-02-14T20:15:20.664Z,-0.67
2023-02-14T20:17:50.197Z,-0.69
2023-02-14T20:20:21.761Z,-0.73
2023-02-14T20:22:51.338Z,-0.78
2023-02-14T20:25:20.797Z,-0.81
2023-02-14T20:27:54.140Z,-0.83
2023-02-14T20:30:23.636Z,-0.88
2023-02-14T20:32:53.371Z,-0.90
2023-02-14T20:35:24.148Z,-0.92
2023-02-14T20:37:54.905Z,-0.91
2023-02-14T20:40:24.517Z,-0.92
2023-02-14T20:42:54.102Z,-0.97
2023-02-14T20:45:23.574Z,-0.97
2023-02-14T20:47:53.117Z,-0.97
2023-02-14T20:50:24.189Z,-0.98
2023-02-14T20:52:55.168Z,-0.98
2023-02-14T20:55:26.992Z,-1.00
2023-02-14T20:58:02.087Z,-1.00
2023-02-14T21:00:31.526Z,-1.03
2023-02-14T21:03:01.328Z,-1.02
2023-02-14T21:05:32.245Z,-0.99
2023-02-14T21:08:01.656Z,-0.99
2023-02-14T21:10:31.136Z,-0.99
2023-02-14T21:13:00.585Z,-1.00
2023-02-14T21:15:30.019Z,-1.02
2023-02-14T21:17:59.628Z,-1.04
2023-02-14T21:20:29.084Z,-1.04
2023-02-14T21:22:59.846Z,-1.03
2023-02-14T21:25:29.203Z,-1.01
2023-02-14T21:27:58.782Z,-1.03
2023-02-14T21:30:31.012Z,-1.03
2023-02-14T21:33:00.980Z,-1.00
2023-02-14T21:35:30.436Z,-0.99
2023-02-14T21:38:01.301Z,-0.99
2023-02-14T21:40:30.744Z,-0.99
2023-02-14T21:43:00.164Z,-0.98
2023-02-14T21:45:47.195Z,-0.98
2023-02-14T21:48:42.763Z,-0.99
2023-02-14T21:51:12.316Z,-1.02
2023-02-14T21:53:43.840Z,-1.01
2023-02-14T21:56:19.628Z,-1.00
2023-02-14T21:58:52.109Z,-0.99
2023-02-14T22:01:27.125Z,-1.00
2023-02-14T22:03:57.717Z,-0.98
2023-02-14T22:06:28.686Z,-0.98
2023-02-14T22:09:01.010Z,-0.99
2023-02-14T22:11:31.038Z,-0.98
2023-02-14T22:14:01.556Z,-0.99
2023-02-14T22:16:31.283Z,-1.00
2023-02-14T22:19:00.745Z,-0.99
2023-02-14T22:21:33.322Z,-1.00
2023-02-14T22:24:05.108Z,-1.00
2023-02-14T22:26:38.702Z,-1.00
2023-02-14T22:29:10.776Z,-1.02
2023-02-14T22:31:44.034Z,-1.03
2023-02-14T22:34:17.719Z,-1.04
2023-02-14T22:36:50.025Z,-1.02
2023-02-14T22:39:20.913Z,-1.04
2023-02-14T22:41:50.324Z,-1.06
2023-02-14T22:44:19.750Z,-1.08
2023-02-14T22:46:49.147Z,-1.07
2023-02-14T22:49:18.598Z,-1.07
2023-02-14T22:51:48.194Z,-1.08
2023-02-14T22:54:18.023Z,-1.09
2023-02-14T22:56:51.390Z,-1.13
2023-02-14T22:59:24.566Z,-1.17
2023-02-14T23:01:54.584Z,-1.17
2023-02-14T23:04:30.867Z,-1.18
2023-02-14T23:07:00.313Z,-1.19
2023-02-14T23:09:29.817Z,-1.20
2023-02-14T23:12:00.841Z,-1.19
2023-02-14T23:14:47.829Z,-1.19
2023-02-14T23:17:35.907Z,-1.15
2023-02-14T23:20:24.186Z,-1.14
2023-02-14T23:22:53.730Z,-1.10
2023-02-14T23:25:23.135Z,-1.08
2023-02-14T23:27:53.956Z,-1.08
2023-02-14T23:30:23.706Z,-1.09
2023-02-14T23:32:53.230Z,-1.11
2023-02-14T23:35:22.755Z,-1.15
2023-02-14T23:37:52.335Z,-1.18
2023-02-14T23:40:22.036Z,-1.18
2023-02-14T23:42:55.777Z,-1.19
2023-02-14T23:45:37.394Z,-1.21
2023-02-14T23:48:07.000Z,-1.20
2023-02-14T23:50:36.564Z,-1.18
2023-02-14T23:53:06.237Z,-1.15
2023-02-14T23:55:36.225Z,-1.14
2023-02-14T23:58:07.066Z,-1.15
